Time;durP1;ratioP1;P1;durP2;ratioP2;P2;SDS_P1;SDS_P2;PMS_P1;PMS_P2;Temp;Humidity;BMP_temperature;BMP_pressure;BME280_temperature;BME280_humidity;BME280_pressure;Samples;Min_cycle;Max_cycle;Signal;HPM_P1;HPM_P2
2023/03/28 00:01:52;;;;;;;2.73;1.23;;;;;;;0.92;64.97;97719.97;6148963;28;20234;-46
2023/03/28 00:04:54;;;;;;;2.40;1.10;;;;;;;1.16;63.79;97737.25;6145846;28;20324;-46
2023/03/28 00:07:58;;;;;;;1.23;0.97;;;;;;;1.19;63.22;97718.53;6146129;28;20431;-45
2023/03/28 00:11:17;;;;;;;3.63;1.57;;;;;;;1.08;63.34;97729.47;6148705;28;20310;-45
2023/03/28 00:14:19;;;;;;;4.93;1.60;;;;;;;1.03;63.54;97748.34;6145386;28;20242;-45
2023/03/28 00:17:21;;;;;;;5.57;1.50;;;;;;;1.09;63.74;97728.50;6146036;28;20246;-46
2023/03/28 00:20:23;;;;;;;1.50;1.00;;;;;;;1.05;63.34;97745.56;6148511;28;20807;-46
2023/03/28 00:23:26;;;;;;;2.90;1.10;;;;;;;1.09;63.01;97747.66;6146371;28;20618;-46
2023/03/28 00:26:31;;;;;;;3.03;1.40;;;;;;;1.05;63.09;97758.69;6145860;28;20242;-49
2023/03/28 00:29:33;;;;;;;2.10;1.20;;;;;;;0.88;62.84;97734.41;6131595;28;20272;-46
2023/03/28 00:32:36;;;;;;;2.90;1.40;;;;;;;1.00;62.22;97741.69;6128178;28;20291;-48
2023/03/28 00:35:38;;;;;;;2.70;1.17;;;;;;;1.16;62.03;97740.69;6145105;28;20297;-46
2023/03/28 00:38:40;;;;;;;1.53;0.90;;;;;;;1.15;61.89;97765.31;6148742;28;20717;-48
2023/03/28 00:41:43;;;;;;;2.13;1.00;;;;;;;0.96;62.36;97763.19;6127685;28;20230;-45
2023/03/28 00:44:56;;;;;;;1.43;1.10;;;;;;;1.11;61.32;97752.72;6161646;28;20233;-45
2023/03/28 00:48:09;;;;;;;2.03;1.20;;;;;;;0.92;62.44;97759.31;6160720;28;20254;-48
2023/03/28 00:51:20;;;;;;;3.33;1.20;;;;;;;0.97;62.87;97762.19;6143611;28;20238;-48
2023/03/28 00:54:26;;;;;;;1.50;1.00;;;;;;;0.99;62.11;97770.72;6132524;28;20230;-47
2023/03/28 00:57:29;;;;;;;1.53;1.00;;;;;;;0.97;61.86;97752.53;6145051;28;20233;-51
2023/03/28 01:00:33;;;;;;;2.50;1.40;;;;;;;0.91;62.22;97765.53;6148040;28;20280;-45
2023/03/28 01:03:40;;;;;;;1.57;1.07;;;;;;;1.05;61.58;97769.19;6126781;28;20724;-48
2023/03/28 01:06:46;;;;;;;1.57;1.17;;;;;;;0.98;61.60;97759.38;6129579;28;20317;-50
2023/03/28 01:09:53;;;;;;;1.13;0.90;;;;;;;0.84;61.86;97770.69;6148639;28;20604;-50
2023/03/28 01:12:57;;;;;;;2.40;1.10;;;;;;;0.84;61.82;97768.06;6143222;28;20237;-49
2023/03/28 01:16:02;;;;;;;1.33;1.10;;;;;;;0.71;62.06;97776.53;6145165;28;20649;-47
2023/03/28 01:19:49;;;;;;;1.77;1.10;;;;;;;0.78;62.39;97774.81;6148422;28;20750;-47
2023/03/28 01:23:36;;;;;;;1.30;1.20;;;;;;;0.62;64.08;97787.25;6141357;28;20245;-48
2023/03/28 01:27:00;;;;;;;1.30;1.20;;;;;;;0.39;65.96;97789.88;6149072;28;20602;-49
2023/03/28 01:30:35;;;;;;;1.87;1.30;;;;;;;0.11;67.19;97790.38;6135425;28;20237;-44
2023/03/28 01:34:14;;;;;;;1.67;1.53;;;;;;;0.08;67.92;97797.78;6152563;28;20227;-45
2023/03/28 01:37:28;;;;;;;2.43;1.80;;;;;;;0.06;68.56;97797.13;6135246;28;20476;-46
2023/03/28 01:40:47;;;;;;;2.00;1.60;;;;;;;0.54;66.44;97800.41;6163410;28;20242;-50
2023/03/28 01:44:13;;;;;;;4.07;1.67;;;;;;;0.76;65.29;97799.59;6149482;28;20222;-50
2023/03/28 01:47:34;;;;;;;3.73;1.47;;;;;;;0.64;65.71;97796.59;6138350;28;20226;-49
2023/03/28 01:50:48;;;;;;;1.87;1.53;;;;;;;0.89;63.29;97809.50;6148545;28;20241;-46
2023/03/28 01:54:05;;;;;;;3.70;1.70;;;;;;;0.95;62.74;97790.44;6125990;28;20711;-49
2023/03/28 01:57:32;;;;;;;1.90;1.33;;;;;;;1.03;62.59;97788.56;6138323;28;20293;-48
2023/03/28 02:00:44;;;;;;;2.90;1.40;;;;;;;1.01;62.11;97822.00;6135998;28;20593;-46
2023/03/28 02:03:53;;;;;;;4.63;1.57;;;;;;;0.96;62.64;97820.91;6131804;28;20257;-47
2023/03/28 02:07:07;;;;;;;1.80;1.47;;;;;;;0.96;62.29;97781.56;6146454;28;20234;-47
2023/03/28 02:10:25;;;;;;;2.43;1.70;;;;;;;1.05;62.25;97805.91;6126883;28;20240;-47
2023/03/28 02:13:36;;;;;;;2.40;1.77;;;;;;;0.95;62.78;97800.91;6162698;28;20308;-47
2023/03/28 02:17:08;;;;;;;3.23;1.70;;;;;;;0.72;63.06;97779.97;6147228;28;20757;-49
2023/03/28 02:20:32;;;;;;;5.50;1.73;;;;;;;0.76;63.73;97816.13;6143894;28;20234;-51
2023/03/28 02:23:48;;;;;;;2.30;1.60;;;;;;;0.50;65.54;97821.75;6142387;28;20234;-51
2023/03/28 02:27:15;;;;;;;2.17;1.90;;;;;;;0.37;66.33;97807.59;6143178;28;20226;-52
2023/03/28 02:30:44;;;;;;;2.00;1.53;;;;;;;0.24;66.98;97829.91;6143462;28;20228;-48
2023/03/28 02:33:48;;;;;;;1.80;1.70;;;;;;;0.12;68.01;97839.16;6160087;28;20233;-47
2023/03/28 02:36:55;;;;;;;2.23;2.00;;;;;;;-0.05;69.12;97841.06;6148380;28;20238;-44
2023/03/28 02:40:09;;;;;;;1.73;1.63;;;;;;;-0.21;69.73;97846.34;6164018;28;20253;-45
2023/03/28 02:43:38;;;;;;;3.03;2.10;;;;;;;-0.26;69.65;97848.66;6156138;28;20273;-45
2023/03/28 02:47:14;;;;;;;2.27;1.90;;;;;;;-0.34;70.77;97856.53;6140132;28;20234;-45
2023/03/28 02:50:34;;;;;;;3.50;3.20;;;;;;;-0.16;70.06;97846.66;6141950;28;20249;-45
2023/03/28 02:53:51;;;;;;;3.70;2.90;;;;;;;0.36;67.94;97848.69;6130512;28;20246;-44
2023/03/28 02:57:37;;;;;;;4.93;2.77;;;;;;;0.43;67.47;97840.94;6146844;28;20233;-46
2023/03/28 03:00:41;;;;;;;3.83;2.33;;;;;;;0.46;66.88;97835.38;6081127;29;20293;-44
2023/03/28 03:03:44;;;;;;;3.17;2.50;;;;;;;0.32;67.78;97833.50;6085689;29;20719;-45
2023/03/28 03:06:47;;;;;;;2.83;2.50;;;;;;;0.43;66.59;97840.94;6084500;29;20242;-45
2023/03/28 03:09:52;;;;;;;3.00;2.20;;;;;;;0.35;67.02;97830.53;6085152;29;20799;-45
2023/03/28 03:12:54;;;;;;;2.60;2.40;;;;;;;0.49;65.90;97837.63;6084570;29;20372;-44
2023/03/28 03:15:57;;;;;;;2.70;2.20;;;;;;;0.57;64.86;97834.97;6073401;29;20243;-45
2023/03/28 03:18:59;;;;;;;3.10;2.03;;;;;;;0.43;64.76;97833.09;6084586;29;20240;-45
2023/03/28 03:22:02;;;;;;;2.30;1.87;;;;;;;0.45;65.06;97839.00;6084560;29;20314;-45
2023/03/28 03:25:08;;;;;;;3.30;2.30;;;;;;;0.27;64.68;97807.00;6084264;29;20372;-44
2023/03/28 03:28:44;;;;;;;3.63;1.97;;;;;;;0.31;65.43;97850.22;6084160;29;20243;-45
2023/03/28 03:31:47;;;;;;;3.13;1.80;;;;;;;0.26;65.26;97853.34;6131624;28;20515;-45
2023/03/28 03:35:07;;;;;;;2.43;2.13;;;;;;;0.02;65.88;97822.84;6148190;28;20606;-45
2023/03/28 03:38:10;;;;;;;1.97;1.77;;;;;;;0.25;65.42;97860.38;6152386;28;20840;-45
2023/03/28 03:41:12;;;;;;;2.43;1.80;;;;;;;0.03;67.14;97857.69;6145847;28;20771;-45
2023/03/28 03:44:15;;;;;;;2.00;1.87;;;;;;;-0.09;66.91;97849.41;6146677;28;20234;-48
2023/03/28 03:47:18;;;;;;;3.57;1.97;;;;;;;-0.10;67.93;97866.94;6145150;28;20250;-46
2023/03/28 03:50:23;;;;;;;2.37;2.00;;;;;;;-0.14;68.25;97864.81;6147033;28;20684;-45
2023/03/28 03:53:25;;;;;;;3.13;1.77;;;;;;;-0.14;67.55;97876.09;6128497;28;20233;-45
2023/03/28 03:56:36;;;;;;;2.27;1.90;;;;;;;-0.29;68.53;97878.59;6135295;28;20769;-45
2023/03/28 03:59:38;;;;;;;2.13;1.93;;;;;;;-0.46;69.23;97877.00;6150000;28;20241;-45
2023/03/28 04:02:46;;;;;;;3.70;1.90;;;;;;;-0.59;70.48;97871.47;6128576;28;20241;-48
2023/03/28 04:05:56;;;;;;;2.17;1.87;;;;;;;-0.55;69.95;97885.84;6133958;28;20613;-48
2023/03/28 04:08:59;;;;;;;2.77;1.83;;;;;;;-0.62;70.66;97885.69;6149843;28;20242;-45
2023/03/28 04:12:21;;;;;;;3.00;2.07;;;;;;;-0.60;69.69;97868.03;6152507;28;20242;-46
2023/03/28 04:15:25;;;;;;;1.70;1.60;;;;;;;-0.81;70.89;97845.00;6160306;28;20273;-46
2023/03/28 04:18:59;;;;;;;1.90;1.77;;;;;;;-0.77;71.72;97849.94;6118392;28;20286;-49
2023/03/28 04:22:03;;;;;;;2.17;1.97;;;;;;;-0.65;71.36;97890.44;6128175;28;20239;-44
2023/03/28 04:25:07;;;;;;;1.73;1.37;;;;;;;-0.59;70.34;97887.16;6099198;29;20235;-48
2023/03/28 04:28:14;;;;;;;1.63;1.53;;;;;;;-0.43;68.34;97889.75;6099252;28;20843;-45
2023/03/28 04:31:28;;;;;;;3.07;1.30;;;;;;;-0.53;69.53;97900.41;6087284;29;20283;-48
2023/03/28 04:35:11;;;;;;;1.53;1.30;;;;;;;-0.46;68.74;97900.56;6118134;29;20258;-47
2023/03/28 04:38:16;;;;;;;1.13;0.97;;;;;;;-0.52;69.18;97907.28;6125381;29;20241;-46
2023/03/28 04:41:32;;;;;;;1.50;0.90;;;;;;;-0.52;68.67;97917.75;6128669;28;20251;-46
2023/03/28 04:44:54;;;;;;;1.97;1.00;;;;;;;-0.47;68.55;97913.81;6090134;28;20241;-47
2023/03/28 04:47:56;;;;;;;1.33;1.07;;;;;;;-0.44;66.84;97885.53;6111632;28;20310;-48
2023/03/28 04:50:59;;;;;;;2.17;1.10;;;;;;;-0.24;66.43;97927.03;6097425;28;20230;-50
2023/03/28 04:54:01;;;;;;;4.87;1.20;;;;;;;-0.23;66.83;97921.63;6128102;28;20243;-46
2023/03/28 04:57:23;;;;;;;1.13;0.90;;;;;;;-0.19;67.20;97919.50;6098157;28;20251;-46
2023/03/28 05:00:31;;;;;;;2.57;0.97;;;;;;;-0.15;67.80;97926.00;6119290;28;20239;-48
2023/03/28 05:03:37;;;;;;;1.90;1.00;;;;;;;-0.11;67.55;97922.88;6097998;28;20539;-46
2023/03/28 05:06:39;;;;;;;1.30;1.10;;;;;;;-0.03;67.54;97929.91;6129810;28;20227;-47
2023/03/28 05:09:47;;;;;;;1.33;0.80;;;;;;;0.10;67.15;97924.13;6111544;29;20242;-46
2023/03/28 05:12:49;;;;;;;1.40;0.93;;;;;;;0.12;66.66;97930.03;6097238;28;20239;-45
2023/03/28 05:15:51;;;;;;;2.50;1.17;;;;;;;0.14;66.56;97934.09;6112209;28;20231;-48
2023/03/28 05:19:09;;;;;;;1.33;0.77;;;;;;;0.64;63.01;97925.03;6093680;28;20331;-48
2023/03/28 05:22:31;;;;;;;1.13;1.00;;;;;;;0.49;64.89;97945.09;6097881;29;20696;-49
2023/03/28 05:25:34;;;;;;;2.77;0.80;;;;;;;0.43;65.93;97928.25;6097369;29;20242;-51
2023/03/28 05:28:36;;;;;;;1.50;1.10;;;;;;;-0.16;64.39;97802.13;6111269;28;20235;-50
2023/03/28 05:31:38;;;;;;;1.77;1.20;;;;;;;0.64;63.32;97927.66;6110664;28;20706;-49
2023/03/28 05:34:51;;;;;;;1.37;1.10;;;;;;;0.57;63.99;97941.63;6102932;28;20234;-48
2023/03/28 05:37:53;;;;;;;1.80;1.23;;;;;;;0.63;63.54;97928.63;6096879;29;20290;-51
2023/03/28 05:40:57;;;;;;;2.37;1.20;;;;;;;0.66;64.34;97922.25;6096889;29;20840;-52
2023/03/28 05:43:59;;;;;;;2.20;1.20;;;;;;;0.77;62.66;97925.28;6111345;28;20266;-51
2023/03/28 05:47:22;;;;;;;1.73;1.27;;;;;;;0.62;62.41;97911.28;6109929;28;20830;-50
2023/03/28 05:50:25;;;;;;;2.50;1.43;;;;;;;0.76;62.68;97936.75;6095975;29;20307;-45
2023/03/28 05:53:35;;;;;;;1.60;1.10;;;;;;;1.19;60.64;97917.94;6127314;28;20727;-46
2023/03/28 05:56:37;;;;;;;3.20;1.33;;;;;;;1.07;60.53;97956.06;6096978;28;20243;-46
2023/03/28 05:59:42;;;;;;;2.97;1.33;;;;;;;1.14;59.93;97934.22;6102713;28;20235;-46
2023/03/28 06:02:46;;;;;;;4.07;1.30;;;;;;;1.17;60.36;97940.91;6096534;28;20246;-45
2023/03/28 06:05:51;;;;;;;1.83;1.10;;;;;;;1.11;61.94;97947.69;6095281;28;20736;-45
2023/03/28 06:08:56;;;;;;;1.40;1.07;;;;;;;1.23;61.13;97945.44;6127451;28;20244;-45
2023/03/28 06:11:59;;;;;;;2.33;1.20;;;;;;;1.29;58.71;97942.13;6115233;28;20236;-45
2023/03/28 06:15:01;;;;;;;2.83;1.13;;;;;;;1.51;58.65;97940.47;6098066;29;20289;-48
2023/03/28 06:18:08;;;;;;;2.27;1.13;;;;;;;1.44;58.19;97948.25;6122315;28;20718;-45
2023/03/28 06:21:17;;;;;;;2.50;1.50;;;;;;;1.23;58.56;97895.59;6123579;28;20241;-46
2023/03/28 06:24:19;;;;;;;2.07;1.20;;;;;;;1.52;58.44;97935.03;6137120;28;20213;-46
2023/03/28 06:27:21;;;;;;;2.20;1.33;;;;;;;1.57;58.21;97915.31;6123879;28;20369;-46
2023/03/28 06:30:24;;;;;;;1.43;1.10;;;;;;;1.94;56.86;97932.84;6141349;28;20313;-47
2023/03/28 06:33:27;;;;;;;2.57;1.20;;;;;;;1.69;56.21;97948.84;6125390;28;20242;-45
2023/03/28 06:36:29;;;;;;;4.30;1.33;;;;;;;1.76;55.71;97938.44;6124699;28;20241;-45
2023/03/28 06:39:31;;;;;;;2.17;1.20;;;;;;;1.59;57.57;97958.78;6123027;28;20243;-45
2023/03/28 06:42:33;;;;;;;2.50;1.30;;;;;;;1.66;57.73;97957.06;6123264;28;20798;-46
2023/03/28 06:46:01;;;;;;;2.00;1.17;;;;;;;1.65;57.38;97942.31;6127109;28;20784;-45
2023/03/28 06:49:06;;;;;;;6.43;1.33;;;;;;;1.62;57.85;97940.03;6130382;28;20293;-47
2023/03/28 06:52:27;;;;;;;1.70;1.30;;;;;;;1.74;58.84;97941.25;6124519;28;20235;-46
2023/03/28 06:55:30;;;;;;;2.60;1.50;;;;;;;2.02;58.24;97959.00;6138692;28;20645;-45
2023/03/28 06:58:32;;;;;;;3.50;1.50;;;;;;;2.09;56.82;97954.69;6139326;28;20298;-48
2023/03/28 07:01:41;;;;;;;2.73;1.40;;;;;;;2.06;57.74;97955.03;6138445;28;20708;-46
2023/03/28 07:04:45;;;;;;;4.30;1.43;;;;;;;2.21;56.87;97958.47;6138649;28;20234;-47
2023/03/28 07:07:48;;;;;;;2.37;1.43;;;;;;;2.38;56.84;97953.84;6125578;28;20270;-45
2023/03/28 07:10:50;;;;;;;2.07;1.30;;;;;;;2.47;55.80;97965.09;6123657;28;20226;-47
2023/03/28 07:13:52;;;;;;;2.00;1.40;;;;;;;2.30;54.99;97946.88;6130821;28;20276;-47
2023/03/28 07:16:55;;;;;;;2.17;1.20;;;;;;;2.56;53.93;97969.22;6138889;28;20249;-47
2023/03/28 07:19:57;;;;;;;1.70;1.30;;;;;;;2.38;55.64;97969.63;6127283;28;20293;-45
2023/03/28 07:22:59;;;;;;;1.77;1.30;;;;;;;2.45;55.03;97986.28;6150351;28;20272;-47
2023/03/28 07:26:03;;;;;;;2.40;1.10;;;;;;;2.65;54.29;97996.25;6142065;28;20730;-46
2023/03/28 07:29:05;;;;;;;1.63;1.17;;;;;;;2.70;53.07;97988.63;6148240;28;20756;-46
2023/03/28 07:32:07;;;;;;;2.03;1.30;;;;;;;2.67;53.52;97991.63;6121903;28;20326;-48
2023/03/28 07:35:12;;;;;;;4.87;1.20;;;;;;;2.52;53.27;97997.72;6123559;28;20242;-46
2023/03/28 07:38:21;;;;;;;1.57;1.10;;;;;;;2.69;52.88;98008.03;6136484;28;20345;-45
2023/03/28 07:41:25;;;;;;;4.43;1.63;;;;;;;2.95;53.81;98008.34;6123779;28;20873;-46
2023/03/28 07:44:27;;;;;;;2.03;1.10;;;;;;;2.98;52.25;97994.84;6121204;28;20242;-50
2023/03/28 07:47:29;;;;;;;1.27;1.10;;;;;;;3.08;52.88;97989.28;6121335;28;20231;-48
2023/03/28 07:50:32;;;;;;;2.13;1.33;;;;;;;2.64;50.57;97884.16;6124077;28;20233;-45
2023/03/28 07:53:36;;;;;;;1.50;1.00;;;;;;;3.29;50.78;97993.72;6153470;28;20258;-46
2023/03/28 07:56:38;;;;;;;1.83;1.40;;;;;;;3.43;51.93;98006.03;6120616;28;20668;-49
2023/03/28 07:59:55;;;;;;;3.07;1.10;;;;;;;3.48;50.38;98001.00;6125948;28;20238;-46
2023/03/28 08:02:58;;;;;;;2.50;1.13;;;;;;;3.41;50.67;97996.69;6124592;28;20253;-45
2023/03/28 08:06:05;;;;;;;2.87;1.50;;;;;;;3.18;52.72;98018.72;6136824;28;20235;-48
2023/03/28 08:09:21;;;;;;;2.13;1.20;;;;;;;3.13;54.43;98025.56;6156571;28;20242;-46
2023/03/28 08:12:34;;;;;;;1.90;1.40;;;;;;;2.90;53.58;98008.09;6136534;28;20237;-46
2023/03/28 08:15:36;;;;;;;4.10;1.90;;;;;;;3.00;54.65;98031.47;6120528;28;20309;-46
2023/03/28 08:18:38;;;;;;;4.40;1.73;;;;;;;2.88;55.25;98025.88;6139496;28;20742;-50
2023/03/28 08:21:40;;;;;;;1.47;1.17;;;;;;;2.74;55.55;98035.44;6122342;28;20319;-47
2023/03/28 08:24:43;;;;;;;1.50;1.27;;;;;;;2.74;54.73;98043.31;6137229;28;20323;-48
2023/03/28 08:27:48;;;;;;;3.70;1.73;;;;;;;2.74;54.00;98040.69;6137520;28;20233;-49
2023/03/28 08:30:50;;;;;;;2.40;1.50;;;;;;;2.47;56.49;98047.41;6152655;28;20265;-49
2023/03/28 08:33:54;;;;;;;2.30;1.47;;;;;;;2.61;55.84;98058.94;6120734;28;20304;-47
2023/03/28 08:37:00;;;;;;;1.93;1.53;;;;;;;2.79;57.65;98045.41;6126132;28;20326;-50
2023/03/28 08:40:07;;;;;;;2.77;1.67;;;;;;;3.03;55.52;98045.09;6135714;28;20236;-46
2023/03/28 08:43:32;;;;;;;3.70;1.50;;;;;;;3.26;54.40;98058.13;6120592;28;20250;-47
2023/03/28 08:46:37;;;;;;;1.83;1.20;;;;;;;3.08;53.70;98068.22;6118687;28;20244;-47
2023/03/28 08:49:47;;;;;;;5.60;2.13;;;;;;;3.12;56.89;98072.13;6123343;28;20746;-47
2023/03/28 08:52:50;;;;;;;2.10;1.60;;;;;;;2.64;56.90;98060.38;6122754;28;20240;-46
2023/03/28 08:55:55;;;;;;;2.97;1.80;;;;;;;2.55;57.26;98078.88;6119039;28;20246;-51
2023/03/28 08:59:11;;;;;;;4.50;1.70;;;;;;;2.54;57.05;98071.97;6124237;28;20324;-51
2023/03/28 09:02:20;;;;;;;3.63;1.77;;;;;;;2.54;56.70;98079.88;6125486;28;20239;-51
2023/03/28 09:05:44;;;;;;;3.40;1.90;;;;;;;2.32;57.84;98083.41;6138816;28;20270;-51
2023/03/28 09:09:15;;;;;;;3.23;2.13;;;;;;;2.31;58.87;98079.13;6123993;28;20238;-50
2023/03/28 09:12:37;;;;;;;3.20;1.90;;;;;;;2.15;59.23;98082.72;6125834;28;20240;-44
2023/03/28 09:15:49;;;;;;;2.10;1.67;;;;;;;2.19;59.81;98078.75;6127637;28;20233;-44
2023/03/28 09:19:09;;;;;;;3.97;1.97;;;;;;;2.14;59.39;98082.91;6120139;28;20297;-46
2023/03/28 09:22:28;;;;;;;3.50;1.50;;;;;;;2.12;59.39;98077.00;6107124;28;20239;-45
2023/03/28 09:25:39;;;;;;;2.80;1.63;;;;;;;2.10;59.92;98086.88;6107884;28;20241;-45
2023/03/28 09:28:56;;;;;;;2.10;1.90;;;;;;;1.99;59.85;98088.94;6108279;28;20239;-44
2023/03/28 09:32:21;;;;;;;2.83;2.20;;;;;;;2.09;60.39;98099.19;6123530;28;20781;-44
2023/03/28 09:35:27;;;;;;;7.37;1.50;;;;;;;2.40;55.76;98106.97;6138226;28;20609;-44
2023/03/28 09:38:37;;;;;;;2.90;1.40;;;;;;;2.41;55.41;98134.06;6123229;28;20248;-45
2023/03/28 09:41:53;;;;;;;1.93;0.90;;;;;;;2.29;55.33;98167.88;6138526;28;20736;-46
2023/03/28 09:45:45;;;;;;;2.90;0.70;;;;;;;1.67;58.76;98163.53;6107783;28;20227;-45
2023/03/28 09:49:16;;;;;;;4.03;0.87;;;;;;;1.81;57.98;98175.91;6107812;28;20240;-45
2023/03/28 09:52:24;;;;;;;6.17;0.70;;;;;;;1.99;59.03;98191.41;6140700;28;20243;-45
2023/03/28 09:55:29;;;;;;;2.47;0.90;;;;;;;2.06;59.69;98125.81;6108435;28;20230;-49
2023/03/28 09:58:52;;;;;;;2.23;0.73;;;;;;;2.72;58.72;98160.25;6107956;28;20310;-45
2023/03/28 10:02:28;;;;;;;2.20;0.80;;;;;;;2.95;57.40;98152.25;6121648;28;20300;-45
2023/03/28 10:05:39;;;;;;;1.23;0.80;;;;;;;3.04;56.58;98138.03;6137028;28;20228;-44
2023/03/28 10:09:14;;;;;;;0.90;0.50;;;;;;;3.47;51.68;98156.59;6105947;28;20240;-45
2023/03/28 10:12:37;;;;;;;1.90;0.97;;;;;;;3.58;50.36;98122.66;6113219;28;20228;-45
2023/03/28 10:15:44;;;;;;;4.90;1.40;;;;;;;3.82;51.78;98137.31;6102192;28;20229;-46
2023/03/28 10:19:05;;;;;;;1.33;0.60;;;;;;;4.40;49.10;98148.59;6106003;28;20239;-46
2023/03/28 10:22:19;;;;;;;1.33;0.60;;;;;;;4.59;50.10;98127.84;6107920;28;20239;-45
2023/03/28 10:25:35;;;;;;;2.07;0.80;;;;;;;4.10;45.46;98140.03;6106907;28;20243;-45
2023/03/28 10:28:38;;;;;;;1.97;0.90;;;;;;;3.92;48.33;98160.72;6105393;28;20243;-44
2023/03/28 10:31:47;;;;;;;0.80;0.60;;;;;;;3.27;50.15;98172.16;6103696;28;20627;-44
2023/03/28 10:35:26;;;;;;;1.57;0.97;;;;;;;2.96;51.36;98173.16;6115077;28;20231;-45
2023/03/28 10:38:51;;;;;;;7.13;1.17;;;;;;;2.93;52.26;98141.94;6107974;28;20289;-44
2023/03/28 10:41:59;;;;;;;1.47;0.80;;;;;;;3.56;51.39;98166.03;6109035;28;20241;-46
2023/03/28 10:45:36;;;;;;;1.17;0.90;;;;;;;3.68;52.55;98167.16;6109928;28;20313;-47
2023/03/28 10:48:45;;;;;;;2.60;0.90;;;;;;;3.87;51.05;98171.84;6104595;28;20231;-48
2023/03/28 10:51:48;;;;;;;2.77;1.40;;;;;;;3.60;51.15;98175.19;6108874;28;20579;-46
2023/03/28 10:55:02;;;;;;;1.63;0.80;;;;;;;3.18;54.99;98186.41;6108974;28;20310;-45
2023/03/28 10:58:36;;;;;;;2.60;1.10;;;;;;;3.17;57.70;98187.41;6103750;28;20242;-45
2023/03/28 11:01:58;;;;;;;2.43;1.37;;;;;;;3.24;54.48;98197.00;6110426;28;20245;-46
2023/03/28 11:05:14;;;;;;;2.97;0.80;;;;;;;3.46;55.05;98190.00;6108821;28;20240;-48
2023/03/28 11:08:19;;;;;;;1.83;0.70;;;;;;;3.58;50.40;98182.44;6112101;28;20253;-46
2023/03/28 11:12:19;;;;;;;1.50;0.70;;;;;;;3.93;50.23;98198.44;6108086;28;20290;-47
2023/03/28 11:15:45;;;;;;;1.27;1.00;;;;;;;3.41;49.75;98165.25;6083674;29;20290;-46
2023/03/28 11:19:19;;;;;;;1.07;0.80;;;;;;;3.28;49.18;98186.94;6070218;29;20331;-46
2023/03/28 11:22:37;;;;;;;0.77;0.70;;;;;;;3.57;48.76;98191.34;6056971;29;20249;-47
2023/03/28 11:25:52;;;;;;;0.43;0.43;;;;;;;3.69;45.91;98144.25;6059283;29;20293;-46
2023/03/28 11:29:34;;;;;;;1.07;0.80;;;;;;;3.79;44.34;98163.22;6076068;29;20853;-47
2023/03/28 11:32:56;;;;;;;1.07;0.67;;;;;;;4.03;41.98;98151.50;6062025;29;20247;-45
2023/03/28 11:36:07;;;;;;;0.80;0.40;;;;;;;4.11;42.72;98162.75;6074001;29;20236;-47
2023/03/28 11:39:30;;;;;;;2.03;0.70;;;;;;;4.16;40.30;98154.28;6059520;29;20314;-44
2023/03/28 11:42:42;;;;;;;1.20;0.60;;;;;;;4.34;39.11;98159.09;6059441;29;20251;-45
2023/03/28 11:45:52;;;;;;;1.50;0.60;;;;;;;4.45;35.02;98160.41;6055963;29;20738;-47
2023/03/28 11:49:45;;;;;;;0.20;0.20;;;;;;;4.52;34.57;98146.25;6071816;28;20293;-47
2023/03/28 11:53:17;;;;;;;1.37;0.43;;;;;;;4.90;37.00;98138.00;6104105;28;20232;-44
2023/03/28 11:56:49;;;;;;;2.53;0.50;;;;;;;5.24;37.05;98166.22;6119026;28;20239;-43
2023/03/28 12:00:23;;;;;;;3.50;0.60;;;;;;;5.36;37.56;98127.63;6116408;28;20224;-44
2023/03/28 12:03:41;;;;;;;1.73;0.60;;;;;;;5.20;31.12;98108.69;6106596;28;20239;-48
2023/03/28 12:07:07;;;;;;;1.57;0.50;;;;;;;5.24;33.71;98155.66;6099274;28;20239;-46
2023/03/28 12:10:26;;;;;;;1.83;0.90;;;;;;;4.71;34.06;98160.59;6103351;28;20242;-47
2023/03/28 12:13:38;;;;;;;4.80;0.60;;;;;;;4.50;37.14;98173.84;6107196;28;20238;-46
2023/03/28 12:16:51;;;;;;;4.07;0.93;;;;;;;3.85;44.80;98202.84;6110510;28;20245;-50
2023/03/28 12:19:56;;;;;;;2.13;0.90;;;;;;;3.42;46.40;98157.16;6143766;28;20725;-49
2023/03/28 12:23:12;;;;;;;2.23;0.80;;;;;;;3.76;48.61;98192.59;6131811;28;20706;-49
2023/03/28 12:26:52;;;;;;;2.03;0.80;;;;;;;4.12;48.38;98176.75;6151096;28;20383;-49
2023/03/28 12:30:03;;;;;;;6.80;0.73;;;;;;;4.17;45.16;98168.28;6145928;28;20234;-48
2023/03/28 12:33:24;;;;;;;1.37;0.60;;;;;;;4.00;45.82;98173.00;6128831;28;20252;-43
2023/03/28 12:37:00;;;;;;;0.93;0.63;;;;;;;4.46;43.00;98176.03;6134848;28;20234;-45
2023/03/28 12:40:12;;;;;;;2.50;0.83;;;;;;;4.74;43.78;98180.53;6132285;28;20706;-44
2023/03/28 12:43:17;;;;;;;2.30;0.80;;;;;;;4.99;43.12;98180.91;6153180;28;20241;-44
2023/03/28 12:46:44;;;;;;;1.10;0.60;;;;;;;5.08;43.46;98180.56;6144665;28;20242;-43
2023/03/28 12:49:58;;;;;;;0.73;0.67;;;;;;;4.84;43.14;98187.09;6138356;28;20235;-43
2023/03/28 12:53:00;;;;;;;2.20;0.83;;;;;;;4.96;42.92;98182.09;6145195;28;20239;-43
2023/03/28 12:56:14;;;;;;;1.90;0.90;;;;;;;4.89;43.08;98176.78;6134160;28;20233;-44
2023/03/28 12:59:38;;;;;;;2.60;0.90;;;;;;;4.92;45.20;98189.56;6146202;28;20256;-44
2023/03/28 13:03:05;;;;;;;1.97;0.97;;;;;;;4.59;45.66;98191.97;6162359;28;20896;-44
2023/03/28 13:06:20;;;;;;;3.50;0.80;;;;;;;4.54;44.28;98180.38;6146880;28;20325;-43
2023/03/28 13:10:01;;;;;;;2.50;1.20;;;;;;;4.53;41.55;98191.91;6148042;28;20235;-43
2023/03/28 13:13:34;;;;;;;2.00;0.80;;;;;;;4.77;40.13;98174.84;6128388;29;20295;-44
2023/03/28 13:16:45;;;;;;;1.63;0.83;;;;;;;4.78;40.30;98184.38;6128425;29;20264;-44
2023/03/28 13:20:15;;;;;;;1.17;0.90;;;;;;;4.73;37.30;98163.88;6126944;29;20241;-43
2023/03/28 13:23:25;;;;;;;2.13;0.90;;;;;;;4.59;38.62;98184.06;6112544;29;20624;-43
2023/03/28 13:26:58;;;;;;;1.83;0.83;;;;;;;4.52;42.73;98208.75;6127790;29;20241;-43
2023/03/28 13:30:10;;;;;;;1.87;0.80;;;;;;;4.22;48.77;98214.16;6128154;28;21044;-43
2023/03/28 13:33:28;;;;;;;3.33;0.97;;;;;;;3.99;52.02;98184.50;6130485;29;20567;-44
2023/03/28 13:36:34;;;;;;;1.73;0.83;;;;;;;4.20;53.89;98199.53;6126096;29;20341;-43
2023/03/28 13:39:36;;;;;;;2.40;0.90;;;;;;;4.44;53.03;98209.72;6114018;29;21692;-42
2023/03/28 13:42:56;;;;;;;2.17;1.10;;;;;;;4.56;51.07;98207.38;6128834;28;20257;-43
2023/03/28 13:46:03;;;;;;;1.27;0.63;;;;;;;4.32;52.24;98205.94;6126747;29;20652;-43
2023/03/28 13:49:10;;;;;;;4.00;1.20;;;;;;;3.95;52.15;98156.91;6137380;28;20728;-43
2023/03/28 13:52:14;;;;;;;2.87;1.10;;;;;;;4.12;51.74;98217.09;6144833;28;20245;-43
2023/03/28 13:55:23;;;;;;;2.57;1.40;;;;;;;4.04;52.15;98219.03;6142155;28;20584;-43
2023/03/28 13:58:25;;;;;;;1.13;0.73;;;;;;;4.05;51.01;98213.59;6135465;28;20328;-44
2023/03/28 14:01:36;;;;;;;1.43;0.90;;;;;;;4.06;52.30;98209.13;6153855;28;20241;-44
2023/03/28 14:04:38;;;;;;;1.23;0.80;;;;;;;4.05;53.64;98216.22;6143699;28;20241;-44
2023/03/28 14:07:40;;;;;;;1.30;0.80;;;;;;;4.01;53.23;98206.25;6146207;28;20233;-46
2023/03/28 14:10:44;;;;;;;1.70;0.97;;;;;;;4.31;51.31;98206.94;6144452;28;20653;-43
2023/03/28 14:13:48;;;;;;;2.03;0.90;;;;;;;4.22;52.34;98215.97;6143005;28;20236;-43
2023/03/28 14:16:50;;;;;;;1.03;0.73;;;;;;;4.34;51.71;98211.84;6145620;28;27223;-44
2023/03/28 14:19:56;;;;;;;1.53;0.93;;;;;;;4.47;48.50;98211.16;6152221;28;20338;-44
2023/03/28 14:22:59;;;;;;;1.57;0.80;;;;;;;4.39;48.72;98188.38;6147340;28;20229;-45
2023/03/28 14:26:16;;;;;;;1.43;0.90;;;;;;;4.65;42.81;98200.97;6151394;28;20242;-43
2023/03/28 14:29:19;;;;;;;1.20;0.80;;;;;;;4.73;41.90;98214.03;6128506;28;20233;-43
2023/03/28 14:32:30;;;;;;;1.77;0.73;;;;;;;4.77;39.46;98211.78;6147858;28;20237;-45
2023/03/28 14:35:35;;;;;;;1.43;0.50;;;;;;;4.66;39.87;98242.16;6152000;28;20307;-43
2023/03/28 14:38:38;;;;;;;2.53;0.80;;;;;;;4.90;40.02;98231.19;6149261;28;20245;-43
2023/03/28 14:41:41;;;;;;;0.90;0.80;;;;;;;4.84;39.87;98221.41;6148039;28;20226;-47
2023/03/28 14:44:49;;;;;;;2.27;0.70;;;;;;;4.92;39.73;98247.66;6131275;28;20230;-44
2023/03/28 14:47:53;;;;;;;2.33;0.87;;;;;;;4.73;39.85;98219.31;6148362;28;20324;-45
2023/03/28 14:50:59;;;;;;;1.97;1.07;;;;;;;5.04;40.78;98233.94;6149677;28;20230;-47
2023/03/28 14:54:03;;;;;;;3.40;0.87;;;;;;;5.07;39.17;98239.63;6148151;28;20234;-48
2023/03/28 14:57:06;;;;;;;2.03;0.63;;;;;;;4.95;38.66;98221.88;6147859;28;20222;-49
2023/03/28 15:00:15;;;;;;;2.43;0.70;;;;;;;5.08;37.41;98253.69;6147036;28;20226;-46
2023/03/28 15:03:33;;;;;;;1.27;0.63;;;;;;;5.03;37.15;98240.25;6150886;28;20250;-45
2023/03/28 15:06:38;;;;;;;1.90;0.80;;;;;;;5.04;37.96;98247.94;6147291;28;20326;-45
2023/03/28 15:09:40;;;;;;;2.40;0.70;;;;;;;5.16;37.78;98232.38;6148266;28;20732;-45
2023/03/28 15:12:57;;;;;;;0.47;0.47;;;;;;;5.17;38.95;98241.94;6148094;28;20900;-47
2023/03/28 15:16:00;;;;;;;1.23;0.80;;;;;;;5.33;38.16;98251.41;6129091;28;20277;-46